sensor_id;sensor_type;location;lat;lon;timestamp;temperature;humidity
36322;DHT22;23564;48.290;11.460;2023-03-09T00:00:57;8.00;1.00
36322;DHT22;23564;48.290;11.460;2023-03-09T00:03:22;8.50;1.00
36322;DHT22;23564;48.290;11.460;2023-03-09T00:05:58;9.00;1.00
36322;DHT22;23564;48.290;11.460;2023-03-09T00:08:27;9.20;1.00
36322;DHT22;23564;48.290;11.460;2023-03-09T00:10:53;9.40;1.00
36322;DHT22;23564;48.290;11.460;2023-03-09T00:13:19;9.60;99.90
36322;DHT22;23564;48.290;11.460;2023-03-09T00:15:45;9.70;99.90
36322;DHT22;23564;48.290;11.460;2023-03-09T00:18:19;9.80;99.90
36322;DHT22;23564;48.290;11.460;2023-03-09T00:20:45;9.90;99.90
36322;DHT22;23564;48.290;11.460;2023-03-09T00:23:11;10.00;99.90
36322;DHT22;23564;48.290;11.460;2023-03-09T00:25:37;10.00;99.90
36322;DHT22;23564;48.290;11.460;2023-03-09T00:28:03;10.00;99.90
36322;DHT22;23564;48.290;11.460;2023-03-09T00:30:29;9.90;99.90
36322;DHT22;23564;48.290;11.460;2023-03-09T00:32:54;9.90;99.90
36322;DHT22;23564;48.290;11.460;2023-03-09T00:35:20;9.90;99.90
36322;DHT22;23564;48.290;11.460;2023-03-09T00:37:46;9.80;99.90
36322;DHT22;23564;48.290;11.460;2023-03-09T00:40:14;9.80;99.90
36322;DHT22;23564;48.290;11.460;2023-03-09T00:42:44;9.80;99.90
36322;DHT22;23564;48.290;11.460;2023-03-09T00:45:11;9.80;99.90
36322;DHT22;23564;48.290;11.460;2023-03-09T00:47:37;9.70;99.90
36322;DHT22;23564;48.290;11.460;2023-03-09T00:50:03;9.50;99.90
36322;DHT22;23564;48.290;11.460;2023-03-09T00:52:30;9.50;99.90
36322;DHT22;23564;48.290;11.460;2023-03-09T00:54:56;9.50;99.90
36322;DHT22;23564;48.290;11.460;2023-03-09T00:57:22;9.60;99.90
36322;DHT22;23564;48.290;11.460;2023-03-09T00:59:48;9.50;99.90
36322;DHT22;23564;48.290;11.460;2023-03-09T01:02:14;9.40;99.90
36322;DHT22;23564;48.290;11.460;2023-03-09T01:04:40;9.30;99.90
36322;DHT22;23564;48.290;11.460;2023-03-09T01:07:05;9.20;99.90
36322;DHT22;23564;48.290;11.460;2023-03-09T01:09:31;9.10;1.00
36322;DHT22;23564;48.290;11.460;2023-03-09T01:11:56;9.10;99.90
36322;DHT22;23564;48.290;11.460;2023-03-09T01:14:22;9.10;99.90
36322;DHT22;23564;48.290;11.460;2023-03-09T01:16:48;9.00;99.90
36322;DHT22;23564;48.290;11.460;2023-03-09T01:19:13;9.10;99.90
36322;DHT22;23564;48.290;11.460;2023-03-09T01:21:39;9.10;99.90
36322;DHT22;23564;48.290;11.460;2023-03-09T01:24:05;9.20;99.90
36322;DHT22;23564;48.290;11.460;2023-03-09T01:26:30;9.20;99.90
36322;DHT22;23564;48.290;11.460;2023-03-09T01:28:56;9.10;99.90
36322;DHT22;23564;48.290;11.460;2023-03-09T01:31:21;9.00;99.90
36322;DHT22;23564;48.290;11.460;2023-03-09T01:33:48;8.90;99.90
36322;DHT22;23564;48.290;11.460;2023-03-09T01:36:16;8.80;99.90
36322;DHT22;23564;48.290;11.460;2023-03-09T01:38:42;8.70;99.90
36322;DHT22;23564;48.290;11.460;2023-03-09T01:41:13;8.70;99.90
36322;DHT22;23564;48.290;11.460;2023-03-09T01:43:43;8.70;99.90
36322;DHT22;23564;48.290;11.460;2023-03-09T01:46:29;8.70;99.90
36322;DHT22;23564;48.290;11.460;2023-03-09T01:51:44;8.70;99.90
36322;DHT22;23564;48.290;11.460;2023-03-09T01:54:16;8.80;99.90
36322;DHT22;23564;48.290;11.460;2023-03-09T01:56:44;8.80;99.90
36322;DHT22;23564;48.290;11.460;2023-03-09T01:59:10;8.80;99.90
36322;DHT22;23564;48.290;11.460;2023-03-09T02:01:39;9.00;99.90
36322;DHT22;23564;48.290;11.460;2023-03-09T02:04:11;9.10;99.90
36322;DHT22;23564;48.290;11.460;2023-03-09T02:06:38;9.10;99.90
36322;DHT22;23564;48.290;11.460;2023-03-09T02:09:31;9.20;99.90
36322;DHT22;23564;48.290;11.460;2023-03-09T02:11:58;9.40;29.30
36322;DHT22;23564;48.290;11.460;2023-03-09T02:14:25;9.50;20.00
36322;DHT22;23564;48.290;11.460;2023-03-09T02:16:50;9.60;1.00
36322;DHT22;23564;48.290;11.460;2023-03-09T02:19:26;9.70;99.90
36322;DHT22;23564;48.290;11.460;2023-03-09T02:21:54;9.80;1.00
36322;DHT22;23564;48.290;11.460;2023-03-09T02:24:36;9.90;66.80
36322;DHT22;23564;48.290;11.460;2023-03-09T02:27:12;9.80;99.90
36322;DHT22;23564;48.290;11.460;2023-03-09T02:29:37;9.80;99.90
36322;DHT22;23564;48.290;11.460;2023-03-09T02:32:04;9.70;99.90
36322;DHT22;23564;48.290;11.460;2023-03-09T02:34:29;9.60;99.90
36322;DHT22;23564;48.290;11.460;2023-03-09T02:36:55;9.50;99.90
36322;DHT22;23564;48.290;11.460;2023-03-09T02:39:38;9.40;1.00
36322;DHT22;23564;48.290;11.460;2023-03-09T02:42:06;9.20;1.00
36322;DHT22;23564;48.290;11.460;2023-03-09T02:44:32;9.00;1.00
36322;DHT22;23564;48.290;11.460;2023-03-09T02:47:19;8.90;1.00
36322;DHT22;23564;48.290;11.460;2023-03-09T02:49:45;8.80;99.90
36322;DHT22;23564;48.290;11.460;2023-03-09T02:52:10;8.70;99.90
36322;DHT22;23564;48.290;11.460;2023-03-09T02:54:36;8.60;1.00
36322;DHT22;23564;48.290;11.460;2023-03-09T02:57:02;8.50;99.90
36322;DHT22;23564;48.290;11.460;2023-03-09T02:59:27;8.40;99.90
36322;DHT22;23564;48.290;11.460;2023-03-09T03:01:53;8.40;99.90
36322;DHT22;23564;48.290;11.460;2023-03-09T03:04:19;8.40;99.90
36322;DHT22;23564;48.290;11.460;2023-03-09T03:06:44;8.50;99.90
36322;DHT22;23564;48.290;11.460;2023-03-09T03:09:10;8.50;99.90
36322;DHT22;23564;48.290;11.460;2023-03-09T03:11:36;8.50;99.90
36322;DHT22;23564;48.290;11.460;2023-03-09T03:14:01;8.40;1.00
36322;DHT22;23564;48.290;11.460;2023-03-09T03:16:27;8.30;1.00
36322;DHT22;23564;48.290;11.460;2023-03-09T03:18:53;8.30;1.00
36322;DHT22;23564;48.290;11.460;2023-03-09T03:21:18;8.20;1.00
36322;DHT22;23564;48.290;11.460;2023-03-09T03:23:44;8.20;1.00
36322;DHT22;23564;48.290;11.460;2023-03-09T03:26:10;8.10;1.00
36322;DHT22;23564;48.290;11.460;2023-03-09T03:28:37;8.10;1.00
36322;DHT22;23564;48.290;11.460;2023-03-09T03:31:03;8.10;1.00
36322;DHT22;23564;48.290;11.460;2023-03-09T03:33:28;8.20;1.00
36322;DHT22;23564;48.290;11.460;2023-03-09T03:35:55;8.10;1.00
36322;DHT22;23564;48.290;11.460;2023-03-09T03:38:21;8.10;1.00
36322;DHT22;23564;48.290;11.460;2023-03-09T03:40:47;8.00;1.00
36322;DHT22;23564;48.290;11.460;2023-03-09T03:43:13;8.10;1.00
36322;DHT22;23564;48.290;11.460;2023-03-09T03:45:39;8.20;1.00
36322;DHT22;23564;48.290;11.460;2023-03-09T03:48:04;8.20;1.00
36322;DHT22;23564;48.290;11.460;2023-03-09T03:50:30;8.20;1.00
36322;DHT22;23564;48.290;11.460;2023-03-09T03:52:56;8.30;1.00
36322;DHT22;23564;48.290;11.460;2023-03-09T03:55:22;8.30;1.00
36322;DHT22;23564;48.290;11.460;2023-03-09T03:57:47;8.30;1.00
36322;DHT22;23564;48.290;11.460;2023-03-09T04:00:13;8.30;1.00
36322;DHT22;23564;48.290;11.460;2023-03-09T04:02:39;8.40;1.00
36322;DHT22;23564;48.290;11.460;2023-03-09T04:05:05;8.30;1.00
36322;DHT22;23564;48.290;11.460;2023-03-09T04:07:31;8.40;1.00
36322;DHT22;23564;48.290;11.460;2023-03-09T04:09:57;8.30;1.00
36322;DHT22;23564;48.290;11.460;2023-03-09T04:12:23;8.30;1.00
36322;DHT22;23564;48.290;11.460;2023-03-09T04:14:48;8.40;1.00
36322;DHT22;23564;48.290;11.460;2023-03-09T04:17:14;8.30;1.00
36322;DHT22;23564;48.290;11.460;2023-03-09T04:19:39;8.30;1.00
36322;DHT22;23564;48.290;11.460;2023-03-09T04:22:05;8.40;1.00
36322;DHT22;23564;48.290;11.460;2023-03-09T04:24:32;8.40;1.00
36322;DHT22;23564;48.290;11.460;2023-03-09T04:26:58;8.40;1.00
36322;DHT22;23564;48.290;11.460;2023-03-09T04:29:24;8.50;1.00
36322;DHT22;23564;48.290;11.460;2023-03-09T04:31:49;8.50;1.00
36322;DHT22;23564;48.290;11.460;2023-03-09T04:34:15;8.50;1.00
36322;DHT22;23564;48.290;11.460;2023-03-09T04:36:41;8.50;1.00
36322;DHT22;23564;48.290;11.460;2023-03-09T04:39:06;8.40;1.00
36322;DHT22;23564;48.290;11.460;2023-03-09T04:41:32;8.40;1.00
36322;DHT22;23564;48.290;11.460;2023-03-09T04:43:58;8.40;1.00
36322;DHT22;23564;48.290;11.460;2023-03-09T04:46:23;8.30;1.00
36322;DHT22;23564;48.290;11.460;2023-03-09T04:48:49;8.40;1.00
36322;DHT22;23564;48.290;11.460;2023-03-09T04:51:14;8.40;1.00
36322;DHT22;23564;48.290;11.460;2023-03-09T04:53:40;8.40;1.00
36322;DHT22;23564;48.290;11.460;2023-03-09T04:56:06;8.50;1.00
36322;DHT22;23564;48.290;11.460;2023-03-09T04:58:31;8.50;1.00
36322;DHT22;23564;48.290;11.460;2023-03-09T05:00:57;8.50;1.00
36322;DHT22;23564;48.290;11.460;2023-03-09T05:03:23;8.50;1.00
36322;DHT22;23564;48.290;11.460;2023-03-09T05:05:49;8.50;1.00
36322;DHT22;23564;48.290;11.460;2023-03-09T05:08:14;8.50;1.00
36322;DHT22;23564;48.290;11.460;2023-03-09T05:10:40;8.50;1.00
36322;DHT22;23564;48.290;11.460;2023-03-09T05:13:05;8.60;1.00
36322;DHT22;23564;48.290;11.460;2023-03-09T05:15:31;8.50;1.00
36322;DHT22;23564;48.290;11.460;2023-03-09T05:17:57;8.60;1.00
36322;DHT22;23564;48.290;11.460;2023-03-09T05:20:23;8.60;1.00
36322;DHT22;23564;48.290;11.460;2023-03-09T05:22:48;8.70;1.00
36322;DHT22;23564;48.290;11.460;2023-03-09T05:25:14;8.70;1.00
36322;DHT22;23564;48.290;11.460;2023-03-09T05:27:40;8.60;1.00
36322;DHT22;23564;48.290;11.460;2023-03-09T05:30:06;8.70;1.00
36322;DHT22;23564;48.290;11.460;2023-03-09T05:32:32;8.70;1.00
36322;DHT22;23564;48.290;11.460;2023-03-09T05:34:57;8.60;1.00
36322;DHT22;23564;48.290;11.460;2023-03-09T05:37:23;8.60;1.00
36322;DHT22;23564;48.290;11.460;2023-03-09T05:39:49;8.60;1.00
36322;DHT22;23564;48.290;11.460;2023-03-09T05:42:16;8.60;1.00
36322;DHT22;23564;48.290;11.460;2023-03-09T05:44:41;8.60;1.00
36322;DHT22;23564;48.290;11.460;2023-03-09T05:47:07;8.60;1.00
36322;DHT22;23564;48.290;11.460;2023-03-09T05:49:33;8.70;1.00
36322;DHT22;23564;48.290;11.460;2023-03-09T05:51:59;8.70;1.00
36322;DHT22;23564;48.290;11.460;2023-03-09T05:54:24;8.70;1.00
36322;DHT22;23564;48.290;11.460;2023-03-09T05:56:53;8.60;1.00
36322;DHT22;23564;48.290;11.460;2023-03-09T05:59:19;8.60;1.00
36322;DHT22;23564;48.290;11.460;2023-03-09T06:01:45;8.60;1.00
36322;DHT22;23564;48.290;11.460;2023-03-09T06:04:11;8.50;1.00
36322;DHT22;23564;48.290;11.460;2023-03-09T06:06:36;8.50;1.00
36322;DHT22;23564;48.290;11.460;2023-03-09T06:09:02;8.50;1.00
36322;DHT22;23564;48.290;11.460;2023-03-09T06:11:27;8.50;1.00
36322;DHT22;23564;48.290;11.460;2023-03-09T06:13:54;8.50;1.00
36322;DHT22;23564;48.290;11.460;2023-03-09T06:16:20;8.50;1.00
36322;DHT22;23564;48.290;11.460;2023-03-09T06:18:45;8.60;1.00
36322;DHT22;23564;48.290;11.460;2023-03-09T06:21:12;8.50;1.00
36322;DHT22;23564;48.290;11.460;2023-03-09T06:23:38;8.50;1.00
36322;DHT22;23564;48.290;11.460;2023-03-09T06:26:06;8.40;1.00
36322;DHT22;23564;48.290;11.460;2023-03-09T06:28:32;8.50;1.00
36322;DHT22;23564;48.290;11.460;2023-03-09T06:30:58;8.50;1.00
36322;DHT22;23564;48.290;11.460;2023-03-09T06:33:24;8.50;1.00
36322;DHT22;23564;48.290;11.460;2023-03-09T06:35:50;8.50;1.00
36322;DHT22;23564;48.290;11.460;2023-03-09T06:38:15;8.50;1.00
36322;DHT22;23564;48.290;11.460;2023-03-09T06:40:41;8.50;1.00
36322;DHT22;23564;48.290;11.460;2023-03-09T06:43:06;8.50;1.00
36322;DHT22;23564;48.290;11.460;2023-03-09T06:45:32;8.50;1.00
36322;DHT22;23564;48.290;11.460;2023-03-09T06:47:58;8.60;1.00
36322;DHT22;23564;48.290;11.460;2023-03-09T06:50:25;8.50;1.00
36322;DHT22;23564;48.290;11.460;2023-03-09T06:52:50;8.50;1.00
36322;DHT22;23564;48.290;11.460;2023-03-09T06:55:17;8.60;1.00
36322;DHT22;23564;48.290;11.460;2023-03-09T06:57:43;8.60;1.00
36322;DHT22;23564;48.290;11.460;2023-03-09T07:00:09;8.70;1.00
36322;DHT22;23564;48.290;11.460;2023-03-09T07:02:37;8.70;1.00
36322;DHT22;23564;48.290;11.460;2023-03-09T07:05:05;8.70;1.00
36322;DHT22;23564;48.290;11.460;2023-03-09T07:07:31;8.80;1.00
36322;DHT22;23564;48.290;11.460;2023-03-09T07:09:56;8.90;1.00
36322;DHT22;23564;48.290;11.460;2023-03-09T07:12:22;9.00;1.00
36322;DHT22;23564;48.290;11.460;2023-03-09T07:14:47;9.00;1.00
36322;DHT22;23564;48.290;11.460;2023-03-09T07:17:13;9.00;1.00
36322;DHT22;23564;48.290;11.460;2023-03-09T07:19:40;9.00;1.00
36322;DHT22;23564;48.290;11.460;2023-03-09T07:22:09;8.90;1.00
36322;DHT22;23564;48.290;11.460;2023-03-09T07:24:35;8.90;1.00
36322;DHT22;23564;48.290;11.460;2023-03-09T07:27:01;8.90;1.00
36322;DHT22;23564;48.290;11.460;2023-03-09T07:29:27;8.80;1.00
36322;DHT22;23564;48.290;11.460;2023-03-09T07:31:53;8.80;1.00
36322;DHT22;23564;48.290;11.460;2023-03-09T07:34:18;8.70;1.00
36322;DHT22;23564;48.290;11.460;2023-03-09T07:36:44;8.70;1.00
36322;DHT22;23564;48.290;11.460;2023-03-09T07:39:11;8.70;1.00
36322;DHT22;23564;48.290;11.460;2023-03-09T07:41:36;8.70;1.00
36322;DHT22;23564;48.290;11.460;2023-03-09T07:44:02;8.70;1.00
36322;DHT22;23564;48.290;11.460;2023-03-09T07:46:28;8.80;1.00
36322;DHT22;23564;48.290;11.460;2023-03-09T07:48:53;8.90;1.00
36322;DHT22;23564;48.290;11.460;2023-03-09T07:51:19;8.90;1.00
36322;DHT22;23564;48.290;11.460;2023-03-09T07:53:44;9.00;1.00
36322;DHT22;23564;48.290;11.460;2023-03-09T07:56:10;9.10;1.00
36322;DHT22;23564;48.290;11.460;2023-03-09T07:58:38;9.10;1.00
36322;DHT22;23564;48.290;11.460;2023-03-09T08:01:05;9.20;1.00
36322;DHT22;23564;48.290;11.460;2023-03-09T08:03:32;9.20;1.00
36322;DHT22;23564;48.290;11.460;2023-03-09T08:06:00;9.20;1.00
36322;DHT22;23564;48.290;11.460;2023-03-09T08:08:26;9.30;99.90
36322;DHT22;23564;48.290;11.460;2023-03-09T08:10:52;9.40;99.90
36322;DHT22;23564;48.290;11.460;2023-03-09T08:13:20;9.40;99.90
36322;DHT22;23564;48.290;11.460;2023-03-09T08:15:47;9.40;99.90
36322;DHT22;23564;48.290;11.460;2023-03-09T08:18:13;9.40;99.90
36322;DHT22;23564;48.290;11.460;2023-03-09T08:20:38;9.40;99.90
36322;DHT22;23564;48.290;11.460;2023-03-09T08:23:04;9.50;99.90
36322;DHT22;23564;48.290;11.460;2023-03-09T08:25:30;9.60;99.90
36322;DHT22;23564;48.290;11.460;2023-03-09T08:27:57;9.60;99.90
36322;DHT22;23564;48.290;11.460;2023-03-09T08:30:23;9.70;99.90
36322;DHT22;23564;48.290;11.460;2023-03-09T08:32:50;9.80;99.90
36322;DHT22;23564;48.290;11.460;2023-03-09T08:35:19;9.80;99.90
36322;DHT22;23564;48.290;11.460;2023-03-09T08:37:45;9.80;99.90
36322;DHT22;23564;48.290;11.460;2023-03-09T08:40:12;9.90;99.90
36322;DHT22;23564;48.290;11.460;2023-03-09T08:42:38;9.90;99.90
36322;DHT22;23564;48.290;11.460;2023-03-09T08:45:05;10.10;99.90
36322;DHT22;23564;48.290;11.460;2023-03-09T08:47:31;10.30;99.90
36322;DHT22;23564;48.290;11.460;2023-03-09T08:49:57;10.50;99.90
36322;DHT22;23564;48.290;11.460;2023-03-09T08:52:23;10.60;99.90
36322;DHT22;23564;48.290;11.460;2023-03-09T08:54:49;10.70;1.00
36322;DHT22;23564;48.290;11.460;2023-03-09T08:57:15;10.60;1.00
36322;DHT22;23564;48.290;11.460;2023-03-09T08:59:41;10.60;99.90
36322;DHT22;23564;48.290;11.460;2023-03-09T09:02:12;10.70;99.90
36322;DHT22;23564;48.290;11.460;2023-03-09T09:04:43;10.60;1.00
36322;DHT22;23564;48.290;11.460;2023-03-09T09:07:09;10.60;84.50
36322;DHT22;23564;48.290;11.460;2023-03-09T09:09:38;10.60;1.00
36322;DHT22;23564;48.290;11.460;2023-03-09T09:12:04;10.90;99.90
36322;DHT22;23564;48.290;11.460;2023-03-09T09:14:31;11.00;1.00
36322;DHT22;23564;48.290;11.460;2023-03-09T09:16:56;11.10;99.90
36322;DHT22;23564;48.290;11.460;2023-03-09T09:19:22;11.10;1.00
36322;DHT22;23564;48.290;11.460;2023-03-09T09:21:48;10.90;15.70
36322;DHT22;23564;48.290;11.460;2023-03-09T09:24:14;10.80;99.90
36322;DHT22;23564;48.290;11.460;2023-03-09T09:26:39;10.80;99.90
36322;DHT22;23564;48.290;11.460;2023-03-09T09:29:06;10.80;99.90
36322;DHT22;23564;48.290;11.460;2023-03-09T09:31:32;10.80;99.90
36322;DHT22;23564;48.290;11.460;2023-03-09T09:33:58;10.80;99.90
36322;DHT22;23564;48.290;11.460;2023-03-09T09:36:24;10.70;99.90
36322;DHT22;23564;48.290;11.460;2023-03-09T09:38:51;10.70;1.00
36322;DHT22;23564;48.290;11.460;2023-03-09T09:41:24;10.60;99.90
36322;DHT22;23564;48.290;11.460;2023-03-09T09:43:55;10.70;1.00
36322;DHT22;23564;48.290;11.460;2023-03-09T09:46:22;10.70;1.00
36322;DHT22;23564;48.290;11.460;2023-03-09T09:48:49;10.70;99.90
36322;DHT22;23564;48.290;11.460;2023-03-09T09:51:35;10.70;1.00
36322;DHT22;23564;48.290;11.460;2023-03-09T09:59:42;10.70;99.90
36322;DHT22;23564;48.290;11.460;2023-03-09T10:04:40;11.10;1.00
36322;DHT22;23564;48.290;11.460;2023-03-09T10:07:15;11.20;99.90
36322;DHT22;23564;48.290;11.460;2023-03-09T10:09:43;11.40;99.90
36322;DHT22;23564;48.290;11.460;2023-03-09T10:12:14;11.50;99.90
36322;DHT22;23564;48.290;11.460;2023-03-09T10:14:55;11.60;99.90
36322;DHT22;23564;48.290;11.460;2023-03-09T10:17:53;11.80;73.80
36322;DHT22;23564;48.290;11.460;2023-03-09T10:20:25;11.80;1.00
36322;DHT22;23564;48.290;11.460;2023-03-09T10:22:52;11.80;99.90
36322;DHT22;23564;48.290;11.460;2023-03-09T10:25:21;11.80;1.00
36322;DHT22;23564;48.290;11.460;2023-03-09T10:27:53;11.70;1.00
36322;DHT22;23564;48.290;11.460;2023-03-09T10:35:42;11.50;1.00
36322;DHT22;23564;48.290;11.460;2023-03-09T10:38:16;11.50;1.00
36322;DHT22;23564;48.290;11.460;2023-03-09T10:40:47;11.50;1.00
36322;DHT22;23564;48.290;11.460;2023-03-09T10:43:30;11.60;1.00
36322;DHT22;23564;48.290;11.460;2023-03-09T10:46:25;11.50;1.00
36322;DHT22;23564;48.290;11.460;2023-03-09T10:49:12;11.60;1.00
36322;DHT22;23564;48.290;11.460;2023-03-09T10:51:44;11.70;1.00
36322;DHT22;23564;48.290;11.460;2023-03-09T10:54:38;11.70;1.00
36322;DHT22;23564;48.290;11.460;2023-03-09T10:57:31;11.90;1.00
36322;DHT22;23564;48.290;11.460;2023-03-09T11:00:19;12.20;99.90
36322;DHT22;23564;48.290;11.460;2023-03-09T11:03:11;12.30;99.90
36322;DHT22;23564;48.290;11.460;2023-03-09T11:05:44;12.40;99.90
36322;DHT22;23564;48.290;11.460;2023-03-09T11:08:24;12.30;99.90
36322;DHT22;23564;48.290;11.460;2023-03-09T11:11:02;12.30;99.90
36322;DHT22;23564;48.290;11.460;2023-03-09T11:13:28;12.10;99.90
36322;DHT22;23564;48.290;11.460;2023-03-09T11:18:31;12.00;96.60
36322;DHT22;23564;48.290;11.460;2023-03-09T11:20:57;12.10;99.90
36322;DHT22;23564;48.290;11.460;2023-03-09T11:26:05;12.10;15.90
36322;DHT22;23564;48.290;11.460;2023-03-09T11:29:27;12.10;1.00
36322;DHT22;23564;48.290;11.460;2023-03-09T11:31:38;12.10;1.00
36322;DHT22;23564;48.290;11.460;2023-03-09T11:34:16;12.10;1.00
36322;DHT22;23564;48.290;11.460;2023-03-09T11:36:50;12.20;1.00
36322;DHT22;23564;48.290;11.460;2023-03-09T11:39:28;12.30;1.00
36322;DHT22;23564;48.290;11.460;2023-03-09T11:41:54;12.40;99.90
36322;DHT22;23564;48.290;11.460;2023-03-09T11:44:30;12.40;99.90
36322;DHT22;23564;48.290;11.460;2023-03-09T11:47:10;12.30;99.90
36322;DHT22;23564;48.290;11.460;2023-03-09T11:49:41;12.20;99.90
36322;DHT22;23564;48.290;11.460;2023-03-09T11:52:10;12.10;99.90
36322;DHT22;23564;48.290;11.460;2023-03-09T11:54:42;12.10;99.90
36322;DHT22;23564;48.290;11.460;2023-03-09T11:57:12;12.10;99.90
36322;DHT22;23564;48.290;11.460;2023-03-09T12:04:39;12.00;99.90
36322;DHT22;23564;48.290;11.460;2023-03-09T12:12:35;12.20;99.90
36322;DHT22;23564;48.290;11.460;2023-03-09T12:15:17;12.30;99.90
36322;DHT22;23564;48.290;11.460;2023-03-09T12:17:57;12.30;99.90
36322;DHT22;23564;48.290;11.460;2023-03-09T12:20:29;12.40;99.90
36322;DHT22;23564;48.290;11.460;2023-03-09T12:22:56;12.40;99.90
36322;DHT22;23564;48.290;11.460;2023-03-09T12:25:24;12.40;99.90
36322;DHT22;23564;48.290;11.460;2023-03-09T12:27:55;12.50;99.90
36322;DHT22;23564;48.290;11.460;2023-03-09T12:30:24;12.70;76.80
36322;DHT22;23564;48.290;11.460;2023-03-09T12:32:51;12.80;1.00
36322;DHT22;23564;48.290;11.460;2023-03-09T12:45:39;12.80;1.00
36322;DHT22;23564;48.290;11.460;2023-03-09T13:03:25;12.90;99.90
36322;DHT22;23564;48.290;11.460;2023-03-09T13:05:54;13.00;99.90
36322;DHT22;23564;48.290;11.460;2023-03-09T13:08:49;13.00;99.90
36322;DHT22;23564;48.290;11.460;2023-03-09T13:13:52;13.00;52.70
36322;DHT22;23564;48.290;11.460;2023-03-09T13:21:48;12.80;47.70
36322;DHT22;23564;48.290;11.460;2023-03-09T13:29:49;12.90;55.20
36322;DHT22;23564;48.290;11.460;2023-03-09T13:32:36;12.80;39.30
36322;DHT22;23564;48.290;11.460;2023-03-09T13:35:17;12.80;67.60
36322;DHT22;23564;48.290;11.460;2023-03-09T13:37:44;12.80;52.80
36322;DHT22;23564;48.290;11.460;2023-03-09T13:40:32;12.90;26.70
36322;DHT22;23564;48.290;11.460;2023-03-09T13:43:02;13.00;15.00
36322;DHT22;23564;48.290;11.460;2023-03-09T13:45:30;13.10;1.00
36322;DHT22;23564;48.290;11.460;2023-03-09T13:47:59;13.10;21.00
36322;DHT22;23564;48.290;11.460;2023-03-09T13:50:27;13.30;4.60
36322;DHT22;23564;48.290;11.460;2023-03-09T13:53:05;13.30;1.00
36322;DHT22;23564;48.290;11.460;2023-03-09T13:55:32;13.30;1.00
36322;DHT22;23564;48.290;11.460;2023-03-09T13:58:18;13.20;1.00
36322;DHT22;23564;48.290;11.460;2023-03-09T14:00:57;13.20;1.00
36322;DHT22;23564;48.290;11.460;2023-03-09T14:03:25;13.20;1.00
36322;DHT22;23564;48.290;11.460;2023-03-09T14:08:31;13.20;1.00
36322;DHT22;23564;48.290;11.460;2023-03-09T14:11:02;13.20;1.00
36322;DHT22;23564;48.290;11.460;2023-03-09T14:13:28;13.10;1.00
36322;DHT22;23564;48.290;11.460;2023-03-09T14:16:05;13.00;1.00
36322;DHT22;23564;48.290;11.460;2023-03-09T14:21:15;12.80;1.00
36322;DHT22;23564;48.290;11.460;2023-03-09T14:23:43;12.90;1.00
36322;DHT22;23564;48.290;11.460;2023-03-09T14:26:09;12.80;1.00
36322;DHT22;23564;48.290;11.460;2023-03-09T14:28:40;12.80;1.00
36322;DHT22;23564;48.290;11.460;2023-03-09T14:31:24;12.70;1.00
36322;DHT22;23564;48.290;11.460;2023-03-09T14:34:04;12.80;1.00
36322;DHT22;23564;48.290;11.460;2023-03-09T14:42:46;12.70;1.00
36322;DHT22;23564;48.290;11.460;2023-03-09T14:45:18;12.70;1.00
36322;DHT22;23564;48.290;11.460;2023-03-09T14:47:44;12.70;1.00
36322;DHT22;23564;48.290;11.460;2023-03-09T14:50:15;12.60;1.00
36322;DHT22;23564;48.290;11.460;2023-03-09T14:52:41;12.60;1.00
36322;DHT22;23564;48.290;11.460;2023-03-09T14:55:20;12.50;1.00
36322;DHT22;23564;48.290;11.460;2023-03-09T14:57:46;12.50;1.00
36322;DHT22;23564;48.290;11.460;2023-03-09T15:00:23;12.60;1.00
36322;DHT22;23564;48.290;11.460;2023-03-09T15:02:50;12.60;1.00
36322;DHT22;23564;48.290;11.460;2023-03-09T15:05:21;12.70;1.00
36322;DHT22;23564;48.290;11.460;2023-03-09T15:07:47;12.80;1.00
36322;DHT22;23564;48.290;11.460;2023-03-09T15:10:14;12.80;1.00
36322;DHT22;23564;48.290;11.460;2023-03-09T15:12:42;12.90;1.00
36322;DHT22;23564;48.290;11.460;2023-03-09T15:15:15;13.00;1.00
36322;DHT22;23564;48.290;11.460;2023-03-09T15:17:42;13.10;1.00
36322;DHT22;23564;48.290;11.460;2023-03-09T15:20:19;13.20;1.00
36322;DHT22;23564;48.290;11.460;2023-03-09T15:22:46;13.20;99.90
36322;DHT22;23564;48.290;11.460;2023-03-09T15:25:15;13.30;99.90
36322;DHT22;23564;48.290;11.460;2023-03-09T15:27:41;13.20;99.90
36322;DHT22;23564;48.290;11.460;2023-03-09T15:30:12;13.10;1.00
36322;DHT22;23564;48.290;11.460;2023-03-09T15:32:39;13.10;1.00
36322;DHT22;23564;48.290;11.460;2023-03-09T15:35:06;13.00;1.00
36322;DHT22;23564;48.290;11.460;2023-03-09T15:37:32;13.00;1.00
36322;DHT22;23564;48.290;11.460;2023-03-09T15:39:57;13.00;1.00
36322;DHT22;23564;48.290;11.460;2023-03-09T15:42:23;13.00;1.00
36322;DHT22;23564;48.290;11.460;2023-03-09T15:44:49;13.10;1.00
36322;DHT22;23564;48.290;11.460;2023-03-09T15:47:15;13.10;1.00
36322;DHT22;23564;48.290;11.460;2023-03-09T15:49:41;13.10;1.00
36322;DHT22;23564;48.290;11.460;2023-03-09T15:52:08;13.10;1.00
36322;DHT22;23564;48.290;11.460;2023-03-09T15:54:33;13.10;1.00
36322;DHT22;23564;48.290;11.460;2023-03-09T15:56:59;13.00;99.90
36322;DHT22;23564;48.290;11.460;2023-03-09T15:59:25;12.90;99.90
36322;DHT22;23564;48.290;11.460;2023-03-09T16:01:50;12.80;99.90
36322;DHT22;23564;48.290;11.460;2023-03-09T16:04:17;12.70;99.90
36322;DHT22;23564;48.290;11.460;2023-03-09T16:06:42;12.70;99.90
36322;DHT22;23564;48.290;11.460;2023-03-09T16:09:10;12.60;99.90
36322;DHT22;23564;48.290;11.460;2023-03-09T16:11:35;12.50;99.90
36322;DHT22;23564;48.290;11.460;2023-03-09T16:14:03;12.50;99.90
36322;DHT22;23564;48.290;11.460;2023-03-09T16:16:29;12.50;99.90
36322;DHT22;23564;48.290;11.460;2023-03-09T16:18:54;12.40;99.90
36322;DHT22;23564;48.290;11.460;2023-03-09T16:21:20;12.30;99.90
36322;DHT22;23564;48.290;11.460;2023-03-09T16:23:46;12.30;99.90
36322;DHT22;23564;48.290;11.460;2023-03-09T16:26:19;12.20;99.90
36322;DHT22;23564;48.290;11.460;2023-03-09T16:28:45;12.20;99.90
36322;DHT22;23564;48.290;11.460;2023-03-09T16:31:18;12.10;99.90
36322;DHT22;23564;48.290;11.460;2023-03-09T16:33:44;12.00;99.90
36322;DHT22;23564;48.290;11.460;2023-03-09T16:36:10;12.00;99.90
36322;DHT22;23564;48.290;11.460;2023-03-09T16:38:36;11.90;99.90
36322;DHT22;23564;48.290;11.460;2023-03-09T16:41:06;11.80;99.90
36322;DHT22;23564;48.290;11.460;2023-03-09T16:43:32;11.80;99.90
36322;DHT22;23564;48.290;11.460;2023-03-09T16:45:57;11.70;99.90
36322;DHT22;23564;48.290;11.460;2023-03-09T16:48:25;11.60;99.90
36322;DHT22;23564;48.290;11.460;2023-03-09T16:50:58;11.50;1.00
36322;DHT22;23564;48.290;11.460;2023-03-09T16:53:25;11.30;1.00
36322;DHT22;23564;48.290;11.460;2023-03-09T16:56:03;11.30;1.00
36322;DHT22;23564;48.290;11.460;2023-03-09T16:58:30;11.20;1.00
36322;DHT22;23564;48.290;11.460;2023-03-09T17:00:56;11.10;1.00
36322;DHT22;23564;48.290;11.460;2023-03-09T17:03:22;11.10;1.00